sensor_id;sensor_type;location;lat;lon;timestamp;temperature;humidity
31837;DHT22;18401;49.344;6.240;2023-05-10T00:54:04;12.00;99.90
31837;DHT22;18401;49.344;6.240;2023-05-10T00:56:30;12.10;99.90
31837;DHT22;18401;49.344;6.240;2023-05-10T00:58:56;12.10;99.90
31837;DHT22;18401;49.344;6.240;2023-05-10T01:01:22;12.00;99.90
31837;DHT22;18401;49.344;6.240;2023-05-10T01:03:48;12.10;99.90
31837;DHT22;18401;49.344;6.240;2023-05-10T01:06:13;12.10;99.90
31837;DHT22;18401;49.344;6.240;2023-05-10T01:08:39;12.10;99.90
31837;DHT22;18401;49.344;6.240;2023-05-10T01:11:04;12.10;99.90
31837;DHT22;18401;49.344;6.240;2023-05-10T01:13:31;12.20;99.90
31837;DHT22;18401;49.344;6.240;2023-05-10T01:15:57;12.20;99.90
31837;DHT22;18401;49.344;6.240;2023-05-10T01:18:23;12.20;99.90
31837;DHT22;18401;49.344;6.240;2023-05-10T01:20:53;12.20;99.90
31837;DHT22;18401;49.344;6.240;2023-05-10T01:33:56;12.20;99.90
31837;DHT22;18401;49.344;6.240;2023-05-10T01:41:17;12.20;99.90
31837;DHT22;18401;49.344;6.240;2023-05-10T01:43:54;12.10;99.90
31837;DHT22;18401;49.344;6.240;2023-05-10T01:46:42;12.10;99.90
31837;DHT22;18401;49.344;6.240;2023-05-10T01:49:18;12.20;99.90
31837;DHT22;18401;49.344;6.240;2023-05-10T01:51:47;12.20;99.90
31837;DHT22;18401;49.344;6.240;2023-05-10T01:54:14;12.20;99.90
31837;DHT22;18401;49.344;6.240;2023-05-10T01:56:42;12.20;99.90
31837;DHT22;18401;49.344;6.240;2023-05-10T01:59:11;12.20;99.90
31837;DHT22;18401;49.344;6.240;2023-05-10T02:01:38;12.20;99.90
31837;DHT22;18401;49.344;6.240;2023-05-10T02:04:06;12.20;99.90
31837;DHT22;18401;49.344;6.240;2023-05-10T02:06:32;12.20;99.90
31837;DHT22;18401;49.344;6.240;2023-05-10T02:08:58;12.10;99.90
31837;DHT22;18401;49.344;6.240;2023-05-10T02:11:25;12.20;99.90
31837;DHT22;18401;49.344;6.240;2023-05-10T02:13:52;12.10;99.90
31837;DHT22;18401;49.344;6.240;2023-05-10T02:16:19;12.10;99.90
31837;DHT22;18401;49.344;6.240;2023-05-10T02:18:47;12.10;99.90
31837;DHT22;18401;49.344;6.240;2023-05-10T02:21:13;12.10;99.90
31837;DHT22;18401;49.344;6.240;2023-05-10T02:23:40;12.10;99.90
31837;DHT22;18401;49.344;6.240;2023-05-10T02:26:06;12.00;99.90
31837;DHT22;18401;49.344;6.240;2023-05-10T02:28:33;11.90;99.90
31837;DHT22;18401;49.344;6.240;2023-05-10T02:30:58;11.90;99.90
31837;DHT22;18401;49.344;6.240;2023-05-10T02:33:24;11.90;99.90
31837;DHT22;18401;49.344;6.240;2023-05-10T02:35:50;11.80;99.90
31837;DHT22;18401;49.344;6.240;2023-05-10T02:38:16;11.70;99.90
31837;DHT22;18401;49.344;6.240;2023-05-10T02:40:44;11.60;99.90
31837;DHT22;18401;49.344;6.240;2023-05-10T02:43:12;11.60;99.90
31837;DHT22;18401;49.344;6.240;2023-05-10T02:45:38;11.60;99.90
31837;DHT22;18401;49.344;6.240;2023-05-10T02:48:05;11.50;99.90
31837;DHT22;18401;49.344;6.240;2023-05-10T02:50:30;11.50;99.90
31837;DHT22;18401;49.344;6.240;2023-05-10T02:52:59;11.50;99.90
31837;DHT22;18401;49.344;6.240;2023-05-10T02:55:26;11.50;99.90
31837;DHT22;18401;49.344;6.240;2023-05-10T02:58:00;11.50;99.90
31837;DHT22;18401;49.344;6.240;2023-05-10T03:00:26;11.40;99.90
31837;DHT22;18401;49.344;6.240;2023-05-10T03:02:52;11.40;99.90
31837;DHT22;18401;49.344;6.240;2023-05-10T03:05:18;11.40;99.90
31837;DHT22;18401;49.344;6.240;2023-05-10T03:07:44;11.30;99.90
31837;DHT22;18401;49.344;6.240;2023-05-10T03:10:10;11.20;99.90
31837;DHT22;18401;49.344;6.240;2023-05-10T03:20:36;11.20;99.90
31837;DHT22;18401;49.344;6.240;2023-05-10T03:23:04;11.10;99.90
31837;DHT22;18401;49.344;6.240;2023-05-10T03:25:31;11.00;99.90
31837;DHT22;18401;49.344;6.240;2023-05-10T03:27:56;11.00;99.90
31837;DHT22;18401;49.344;6.240;2023-05-10T03:30:23;11.00;99.90
31837;DHT22;18401;49.344;6.240;2023-05-10T03:32:49;10.90;99.90
31837;DHT22;18401;49.344;6.240;2023-05-10T03:35:15;10.90;99.90
31837;DHT22;18401;49.344;6.240;2023-05-10T03:37:40;10.90;99.90
31837;DHT22;18401;49.344;6.240;2023-05-10T03:40:06;10.90;99.90
31837;DHT22;18401;49.344;6.240;2023-05-10T03:42:32;10.90;99.90
31837;DHT22;18401;49.344;6.240;2023-05-10T03:44:57;10.90;99.90
31837;DHT22;18401;49.344;6.240;2023-05-10T03:47:23;11.00;99.90
31837;DHT22;18401;49.344;6.240;2023-05-10T03:49:49;11.00;99.90
31837;DHT22;18401;49.344;6.240;2023-05-10T03:52:14;11.00;99.90
31837;DHT22;18401;49.344;6.240;2023-05-10T03:54:40;11.10;99.90
31837;DHT22;18401;49.344;6.240;2023-05-10T03:57:06;11.10;99.90
31837;DHT22;18401;49.344;6.240;2023-05-10T03:59:31;11.20;99.90
31837;DHT22;18401;49.344;6.240;2023-05-10T04:01:57;11.20;99.90
31837;DHT22;18401;49.344;6.240;2023-05-10T04:04:23;11.20;99.90
31837;DHT22;18401;49.344;6.240;2023-05-10T04:06:49;11.20;99.90
31837;DHT22;18401;49.344;6.240;2023-05-10T04:09:14;11.20;99.90
31837;DHT22;18401;49.344;6.240;2023-05-10T04:11:40;11.20;99.90
31837;DHT22;18401;49.344;6.240;2023-05-10T04:14:05;11.30;99.90
31837;DHT22;18401;49.344;6.240;2023-05-10T04:16:31;11.30;99.90
31837;DHT22;18401;49.344;6.240;2023-05-10T04:18:57;11.30;99.90
31837;DHT22;18401;49.344;6.240;2023-05-10T04:21:22;11.30;99.90
31837;DHT22;18401;49.344;6.240;2023-05-10T04:23:48;11.40;99.90
31837;DHT22;18401;49.344;6.240;2023-05-10T04:26:13;11.40;99.90
31837;DHT22;18401;49.344;6.240;2023-05-10T04:28:39;11.40;99.90
31837;DHT22;18401;49.344;6.240;2023-05-10T04:31:05;11.40;99.90
31837;DHT22;18401;49.344;6.240;2023-05-10T04:33:31;11.50;99.90
31837;DHT22;18401;49.344;6.240;2023-05-10T04:35:56;11.50;99.90
31837;DHT22;18401;49.344;6.240;2023-05-10T04:38:22;11.40;99.90
31837;DHT22;18401;49.344;6.240;2023-05-10T04:40:47;11.40;99.90
31837;DHT22;18401;49.344;6.240;2023-05-10T04:43:13;11.40;99.90
31837;DHT22;18401;49.344;6.240;2023-05-10T04:45:39;11.40;99.90
31837;DHT22;18401;49.344;6.240;2023-05-10T04:48:04;11.40;99.90
31837;DHT22;18401;49.344;6.240;2023-05-10T04:50:32;11.40;99.90
31837;DHT22;18401;49.344;6.240;2023-05-10T04:52:57;11.40;99.90
31837;DHT22;18401;49.344;6.240;2023-05-10T04:55:23;11.40;99.90
31837;DHT22;18401;49.344;6.240;2023-05-10T04:57:48;11.40;99.90
31837;DHT22;18401;49.344;6.240;2023-05-10T05:00:14;11.40;99.90
31837;DHT22;18401;49.344;6.240;2023-05-10T05:02:43;11.50;99.90
31837;DHT22;18401;49.344;6.240;2023-05-10T05:05:10;11.50;99.90
31837;DHT22;18401;49.344;6.240;2023-05-10T05:07:36;11.50;99.90
31837;DHT22;18401;49.344;6.240;2023-05-10T05:10:02;11.60;99.90
31837;DHT22;18401;49.344;6.240;2023-05-10T05:12:28;11.50;99.90
31837;DHT22;18401;49.344;6.240;2023-05-10T05:14:54;11.60;99.90
31837;DHT22;18401;49.344;6.240;2023-05-10T05:17:19;11.50;99.90
31837;DHT22;18401;49.344;6.240;2023-05-10T05:19:44;11.70;99.90
31837;DHT22;18401;49.344;6.240;2023-05-10T05:22:10;11.60;99.90
31837;DHT22;18401;49.344;6.240;2023-05-10T05:24:36;11.60;99.90
31837;DHT22;18401;49.344;6.240;2023-05-10T05:27:03;11.60;99.90
31837;DHT22;18401;49.344;6.240;2023-05-10T05:29:29;11.60;99.90
31837;DHT22;18401;49.344;6.240;2023-05-10T05:31:54;11.60;99.90
31837;DHT22;18401;49.344;6.240;2023-05-10T05:34:20;11.60;99.90
31837;DHT22;18401;49.344;6.240;2023-05-10T05:36:46;11.60;99.90
31837;DHT22;18401;49.344;6.240;2023-05-10T05:39:12;11.70;99.90
31837;DHT22;18401;49.344;6.240;2023-05-10T05:41:38;11.70;99.90
31837;DHT22;18401;49.344;6.240;2023-05-10T05:44:03;11.70;99.90
31837;DHT22;18401;49.344;6.240;2023-05-10T05:46:29;11.70;99.90
31837;DHT22;18401;49.344;6.240;2023-05-10T05:48:54;11.70;99.90
31837;DHT22;18401;49.344;6.240;2023-05-10T05:51:20;11.80;99.90
31837;DHT22;18401;49.344;6.240;2023-05-10T05:53:45;11.90;99.90
31837;DHT22;18401;49.344;6.240;2023-05-10T05:56:11;12.00;99.90
31837;DHT22;18401;49.344;6.240;2023-05-10T05:58:36;12.00;99.90
31837;DHT22;18401;49.344;6.240;2023-05-10T06:01:02;12.00;99.90
31837;DHT22;18401;49.344;6.240;2023-05-10T06:03:28;12.10;99.90
31837;DHT22;18401;49.344;6.240;2023-05-10T06:05:54;12.20;99.90
31837;DHT22;18401;49.344;6.240;2023-05-10T06:08:19;12.20;99.90
31837;DHT22;18401;49.344;6.240;2023-05-10T06:10:45;12.10;99.90
31837;DHT22;18401;49.344;6.240;2023-05-10T06:13:11;12.10;99.90
31837;DHT22;18401;49.344;6.240;2023-05-10T06:15:37;12.30;99.90
31837;DHT22;18401;49.344;6.240;2023-05-10T06:18:02;12.20;99.90
31837;DHT22;18401;49.344;6.240;2023-05-10T06:20:28;12.30;99.90
31837;DHT22;18401;49.344;6.240;2023-05-10T06:22:53;12.40;99.90
31837;DHT22;18401;49.344;6.240;2023-05-10T06:25:21;12.60;99.90
31837;DHT22;18401;49.344;6.240;2023-05-10T06:27:46;12.60;99.90
31837;DHT22;18401;49.344;6.240;2023-05-10T06:30:12;12.70;99.90
31837;DHT22;18401;49.344;6.240;2023-05-10T06:32:38;12.70;99.90
31837;DHT22;18401;49.344;6.240;2023-05-10T06:35:04;12.90;99.90
31837;DHT22;18401;49.344;6.240;2023-05-10T06:37:30;13.00;99.90
31837;DHT22;18401;49.344;6.240;2023-05-10T06:39:55;13.10;99.90
31837;DHT22;18401;49.344;6.240;2023-05-10T06:42:21;13.00;99.90
31837;DHT22;18401;49.344;6.240;2023-05-10T06:44:46;12.90;99.90
31837;DHT22;18401;49.344;6.240;2023-05-10T06:47:12;12.90;99.90
31837;DHT22;18401;49.344;6.240;2023-05-10T06:49:37;13.20;99.90
31837;DHT22;18401;49.344;6.240;2023-05-10T06:52:03;13.00;99.90
31837;DHT22;18401;49.344;6.240;2023-05-10T06:54:29;12.80;99.90
31837;DHT22;18401;49.344;6.240;2023-05-10T06:56:55;12.90;99.90
31837;DHT22;18401;49.344;6.240;2023-05-10T06:59:20;12.90;99.90
31837;DHT22;18401;49.344;6.240;2023-05-10T07:01:46;13.00;99.90
31837;DHT22;18401;49.344;6.240;2023-05-10T07:04:12;12.90;99.90
31837;DHT22;18401;49.344;6.240;2023-05-10T07:06:38;12.90;99.90
31837;DHT22;18401;49.344;6.240;2023-05-10T07:09:04;12.70;99.90
31837;DHT22;18401;49.344;6.240;2023-05-10T07:11:29;12.50;99.90
31837;DHT22;18401;49.344;6.240;2023-05-10T07:13:55;12.40;99.90
31837;DHT22;18401;49.344;6.240;2023-05-10T07:16:20;12.30;99.90
31837;DHT22;18401;49.344;6.240;2023-05-10T07:18:46;12.40;99.90
31837;DHT22;18401;49.344;6.240;2023-05-10T07:21:12;12.10;99.90
31837;DHT22;18401;49.344;6.240;2023-05-10T07:23:38;12.20;99.90
31837;DHT22;18401;49.344;6.240;2023-05-10T07:26:03;12.30;99.90
31837;DHT22;18401;49.344;6.240;2023-05-10T07:28:29;12.40;99.90
31837;DHT22;18401;49.344;6.240;2023-05-10T07:30:54;12.50;99.90
31837;DHT22;18401;49.344;6.240;2023-05-10T07:33:20;12.50;99.90
31837;DHT22;18401;49.344;6.240;2023-05-10T07:35:45;12.60;99.90
31837;DHT22;18401;49.344;6.240;2023-05-10T07:38:11;12.60;99.90
31837;DHT22;18401;49.344;6.240;2023-05-10T07:40:37;12.80;99.90
31837;DHT22;18401;49.344;6.240;2023-05-10T07:43:03;12.70;99.90
31837;DHT22;18401;49.344;6.240;2023-05-10T07:45:28;12.80;99.90
31837;DHT22;18401;49.344;6.240;2023-05-10T07:47:54;13.00;99.90
31837;DHT22;18401;49.344;6.240;2023-05-10T07:50:19;12.90;99.90
31837;DHT22;18401;49.344;6.240;2023-05-10T07:52:46;12.70;99.90
31837;DHT22;18401;49.344;6.240;2023-05-10T07:55:12;12.60;99.90
31837;DHT22;18401;49.344;6.240;2023-05-10T07:57:37;12.50;99.90
31837;DHT22;18401;49.344;6.240;2023-05-10T08:00:03;12.60;99.90
31837;DHT22;18401;49.344;6.240;2023-05-10T08:02:29;12.50;99.90
31837;DHT22;18401;49.344;6.240;2023-05-10T08:04:54;12.20;99.90
31837;DHT22;18401;49.344;6.240;2023-05-10T08:07:21;12.30;99.90
31837;DHT22;18401;49.344;6.240;2023-05-10T08:09:46;12.30;99.90
31837;DHT22;18401;49.344;6.240;2023-05-10T08:12:12;12.20;99.90
31837;DHT22;18401;49.344;6.240;2023-05-10T08:14:37;12.20;99.90
31837;DHT22;18401;49.344;6.240;2023-05-10T08:17:03;12.40;99.90
31837;DHT22;18401;49.344;6.240;2023-05-10T08:19:29;12.50;99.90
31837;DHT22;18401;49.344;6.240;2023-05-10T08:21:54;12.40;99.90
31837;DHT22;18401;49.344;6.240;2023-05-10T08:24:21;12.50;99.90
31837;DHT22;18401;49.344;6.240;2023-05-10T08:26:46;12.80;99.90
31837;DHT22;18401;49.344;6.240;2023-05-10T08:29:13;13.20;99.90
31837;DHT22;18401;49.344;6.240;2023-05-10T08:31:38;13.00;99.90
31837;DHT22;18401;49.344;6.240;2023-05-10T08:34:04;12.80;99.90
31837;DHT22;18401;49.344;6.240;2023-05-10T08:36:29;12.60;99.90
31837;DHT22;18401;49.344;6.240;2023-05-10T08:38:55;12.60;99.90
31837;DHT22;18401;49.344;6.240;2023-05-10T08:41:21;12.70;99.90
31837;DHT22;18401;49.344;6.240;2023-05-10T08:43:47;12.60;99.90
31837;DHT22;18401;49.344;6.240;2023-05-10T08:46:16;12.50;99.90
31837;DHT22;18401;49.344;6.240;2023-05-10T08:48:45;12.70;99.90
31837;DHT22;18401;49.344;6.240;2023-05-10T08:51:17;12.90;99.90
31837;DHT22;18401;49.344;6.240;2023-05-10T08:53:43;13.10;99.90
31837;DHT22;18401;49.344;6.240;2023-05-10T08:56:09;13.00;99.90
31837;DHT22;18401;49.344;6.240;2023-05-10T08:58:34;13.10;99.90
31837;DHT22;18401;49.344;6.240;2023-05-10T09:01:01;13.00;99.90
31837;DHT22;18401;49.344;6.240;2023-05-10T09:03:28;13.00;99.90
31837;DHT22;18401;49.344;6.240;2023-05-10T09:05:53;13.20;99.90
31837;DHT22;18401;49.344;6.240;2023-05-10T09:08:22;13.50;99.90
31837;DHT22;18401;49.344;6.240;2023-05-10T09:10:50;13.90;99.90
31837;DHT22;18401;49.344;6.240;2023-05-10T09:13:16;14.60;99.90
31837;DHT22;18401;49.344;6.240;2023-05-10T09:15:42;14.60;99.90
31837;DHT22;18401;49.344;6.240;2023-05-10T09:18:08;15.00;99.90
31837;DHT22;18401;49.344;6.240;2023-05-10T09:20:34;15.20;99.90
31837;DHT22;18401;49.344;6.240;2023-05-10T09:23:00;15.50;99.90
31837;DHT22;18401;49.344;6.240;2023-05-10T09:25:26;15.00;99.90
31837;DHT22;18401;49.344;6.240;2023-05-10T09:27:51;13.90;99.90
31837;DHT22;18401;49.344;6.240;2023-05-10T09:30:24;13.00;99.90
31837;DHT22;18401;49.344;6.240;2023-05-10T09:32:50;12.60;99.90
31837;DHT22;18401;49.344;6.240;2023-05-10T09:35:16;12.30;99.90
31837;DHT22;18401;49.344;6.240;2023-05-10T09:37:43;12.20;99.90
31837;DHT22;18401;49.344;6.240;2023-05-10T09:40:12;12.30;99.90
31837;DHT22;18401;49.344;6.240;2023-05-10T09:42:38;12.30;99.90
31837;DHT22;18401;49.344;6.240;2023-05-10T09:45:04;12.40;99.90
31837;DHT22;18401;49.344;6.240;2023-05-10T09:47:31;12.60;99.90
31837;DHT22;18401;49.344;6.240;2023-05-10T09:49:57;12.70;99.90
31837;DHT22;18401;49.344;6.240;2023-05-10T09:52:28;12.80;99.90
31837;DHT22;18401;49.344;6.240;2023-05-10T09:54:53;12.90;99.90
31837;DHT22;18401;49.344;6.240;2023-05-10T09:57:20;13.10;99.90
31837;DHT22;18401;49.344;6.240;2023-05-10T09:59:46;13.40;99.90
31837;DHT22;18401;49.344;6.240;2023-05-10T10:02:12;13.50;99.90
31837;DHT22;18401;49.344;6.240;2023-05-10T10:04:42;13.20;99.90
31837;DHT22;18401;49.344;6.240;2023-05-10T10:07:08;13.10;99.90
31837;DHT22;18401;49.344;6.240;2023-05-10T10:09:34;13.00;99.90
31837;DHT22;18401;49.344;6.240;2023-05-10T10:12:00;12.80;99.90
31837;DHT22;18401;49.344;6.240;2023-05-10T10:14:26;12.50;99.90
31837;DHT22;18401;49.344;6.240;2023-05-10T10:16:52;12.50;99.90
31837;DHT22;18401;49.344;6.240;2023-05-10T10:19:18;12.60;99.90
31837;DHT22;18401;49.344;6.240;2023-05-10T10:21:44;12.60;99.90
31837;DHT22;18401;49.344;6.240;2023-05-10T10:24:10;12.80;99.90
31837;DHT22;18401;49.344;6.240;2023-05-10T10:26:35;12.80;99.90
31837;DHT22;18401;49.344;6.240;2023-05-10T10:29:23;12.60;99.90
31837;DHT22;18401;49.344;6.240;2023-05-10T10:31:55;12.50;99.90
31837;DHT22;18401;49.344;6.240;2023-05-10T10:34:28;12.50;99.90
31837;DHT22;18401;49.344;6.240;2023-05-10T10:36:54;12.60;99.90
31837;DHT22;18401;49.344;6.240;2023-05-10T10:39:19;12.90;99.90
31837;DHT22;18401;49.344;6.240;2023-05-10T10:41:52;13.00;99.90
31837;DHT22;18401;49.344;6.240;2023-05-10T10:49:32;14.00;99.90
31837;DHT22;18401;49.344;6.240;2023-05-10T10:54:49;14.40;99.90
31837;DHT22;18401;49.344;6.240;2023-05-10T10:57:14;14.60;99.90
31837;DHT22;18401;49.344;6.240;2023-05-10T10:59:43;14.40;99.90
31837;DHT22;18401;49.344;6.240;2023-05-10T11:02:09;14.00;99.90
31837;DHT22;18401;49.344;6.240;2023-05-10T11:04:42;14.40;99.90
31837;DHT22;18401;49.344;6.240;2023-05-10T11:07:15;15.60;99.90
31837;DHT22;18401;49.344;6.240;2023-05-10T11:09:41;15.90;99.90
31837;DHT22;18401;49.344;6.240;2023-05-10T11:12:10;15.30;99.90
31837;DHT22;18401;49.344;6.240;2023-05-10T11:14:35;15.10;99.90
31837;DHT22;18401;49.344;6.240;2023-05-10T11:17:01;14.90;99.90
31837;DHT22;18401;49.344;6.240;2023-05-10T11:19:27;14.80;99.90
31837;DHT22;18401;49.344;6.240;2023-05-10T11:24:31;14.80;99.90
31837;DHT22;18401;49.344;6.240;2023-05-10T11:26:56;14.80;99.90
31837;DHT22;18401;49.344;6.240;2023-05-10T11:29:22;15.30;99.90
31837;DHT22;18401;49.344;6.240;2023-05-10T11:31:48;15.60;99.90
31837;DHT22;18401;49.344;6.240;2023-05-10T11:34:30;15.90;99.90
31837;DHT22;18401;49.344;6.240;2023-05-10T11:36:56;16.20;99.90
31837;DHT22;18401;49.344;6.240;2023-05-10T11:39:25;16.70;99.90
31837;DHT22;18401;49.344;6.240;2023-05-10T11:41:51;16.40;99.90
31837;DHT22;18401;49.344;6.240;2023-05-10T11:44:17;16.40;99.90
31837;DHT22;18401;49.344;6.240;2023-05-10T11:46:42;17.10;99.90
31837;DHT22;18401;49.344;6.240;2023-05-10T11:49:08;17.30;99.90
31837;DHT22;18401;49.344;6.240;2023-05-10T11:51:34;16.50;99.90
31837;DHT22;18401;49.344;6.240;2023-05-10T11:54:08;15.90;99.90
31837;DHT22;18401;49.344;6.240;2023-05-10T11:56:34;15.70;99.90
31837;DHT22;18401;49.344;6.240;2023-05-10T11:59:00;15.80;99.90
31837;DHT22;18401;49.344;6.240;2023-05-10T12:01:27;15.60;99.90
31837;DHT22;18401;49.344;6.240;2023-05-10T12:03:54;15.80;99.90
31837;DHT22;18401;49.344;6.240;2023-05-10T12:06:20;16.30;99.90
31837;DHT22;18401;49.344;6.240;2023-05-10T12:08:46;16.40;99.90
31837;DHT22;18401;49.344;6.240;2023-05-10T12:11:12;16.40;99.90
31837;DHT22;18401;49.344;6.240;2023-05-10T12:13:40;16.30;99.90
31837;DHT22;18401;49.344;6.240;2023-05-10T12:16:12;16.70;99.90
31837;DHT22;18401;49.344;6.240;2023-05-10T12:18:38;16.80;99.90
31837;DHT22;18401;49.344;6.240;2023-05-10T12:21:05;17.00;99.90
31837;DHT22;18401;49.344;6.240;2023-05-10T12:23:30;16.40;99.90
31837;DHT22;18401;49.344;6.240;2023-05-10T12:26:01;16.40;99.90
31837;DHT22;18401;49.344;6.240;2023-05-10T12:28:29;16.60;99.90
31837;DHT22;18401;49.344;6.240;2023-05-10T12:30:55;16.40;99.90
31837;DHT22;18401;49.344;6.240;2023-05-10T12:33:22;17.20;99.90
31837;DHT22;18401;49.344;6.240;2023-05-10T12:35:48;17.50;89.80
31837;DHT22;18401;49.344;6.240;2023-05-10T12:38:33;17.20;96.50
31837;DHT22;18401;49.344;6.240;2023-05-10T12:41:00;17.30;72.30
31837;DHT22;18401;49.344;6.240;2023-05-10T12:43:26;17.10;63.70
31837;DHT22;18401;49.344;6.240;2023-05-10T12:45:51;16.90;79.90
31837;DHT22;18401;49.344;6.240;2023-05-10T12:48:17;16.40;80.70
31837;DHT22;18401;49.344;6.240;2023-05-10T12:50:42;16.30;86.40
31837;DHT22;18401;49.344;6.240;2023-05-10T12:53:08;15.90;79.40
31837;DHT22;18401;49.344;6.240;2023-05-10T12:55:33;15.40;95.50
31837;DHT22;18401;49.344;6.240;2023-05-10T12:57:59;14.70;98.90
31837;DHT22;18401;49.344;6.240;2023-05-10T13:00:25;14.40;99.90
31837;DHT22;18401;49.344;6.240;2023-05-10T13:02:50;14.20;99.90
31837;DHT22;18401;49.344;6.240;2023-05-10T13:05:16;14.20;99.90
31837;DHT22;18401;49.344;6.240;2023-05-10T13:07:42;14.30;99.90
31837;DHT22;18401;49.344;6.240;2023-05-10T13:10:09;14.50;99.90
31837;DHT22;18401;49.344;6.240;2023-05-10T13:12:35;14.50;99.90
31837;DHT22;18401;49.344;6.240;2023-05-10T13:15:01;14.60;99.90
31837;DHT22;18401;49.344;6.240;2023-05-10T13:17:26;15.00;99.90
31837;DHT22;18401;49.344;6.240;2023-05-10T13:19:52;15.10;99.90
31837;DHT22;18401;49.344;6.240;2023-05-10T13:22:18;15.20;99.90
31837;DHT22;18401;49.344;6.240;2023-05-10T13:24:43;15.00;99.90
31837;DHT22;18401;49.344;6.240;2023-05-10T13:27:09;14.70;99.90
31837;DHT22;18401;49.344;6.240;2023-05-10T13:29:34;14.40;99.90
31837;DHT22;18401;49.344;6.240;2023-05-10T13:32:00;14.50;99.90
31837;DHT22;18401;49.344;6.240;2023-05-10T13:34:26;14.70;99.90
31837;DHT22;18401;49.344;6.240;2023-05-10T13:36:52;15.00;99.90
31837;DHT22;18401;49.344;6.240;2023-05-10T13:39:19;14.90;99.90
31837;DHT22;18401;49.344;6.240;2023-05-10T13:41:45;14.60;99.90
31837;DHT22;18401;49.344;6.240;2023-05-10T13:44:14;14.40;99.90
31837;DHT22;18401;49.344;6.240;2023-05-10T13:46:40;14.20;99.90
31837;DHT22;18401;49.344;6.240;2023-05-10T13:49:06;14.40;99.90
31837;DHT22;18401;49.344;6.240;2023-05-10T13:51:33;14.40;99.90
31837;DHT22;18401;49.344;6.240;2023-05-10T13:53:58;14.60;99.90
31837;DHT22;18401;49.344;6.240;2023-05-10T13:56:24;14.90;99.90
31837;DHT22;18401;49.344;6.240;2023-05-10T13:58:50;15.20;99.90
31837;DHT22;18401;49.344;6.240;2023-05-10T14:01:15;15.70;99.90
31837;DHT22;18401;49.344;6.240;2023-05-10T14:03:41;16.10;99.90
31837;DHT22;18401;49.344;6.240;2023-05-10T14:06:07;17.40;99.90
31837;DHT22;18401;49.344;6.240;2023-05-10T14:08:33;18.70;99.90
31837;DHT22;18401;49.344;6.240;2023-05-10T14:10:59;20.00;99.90
31837;DHT22;18401;49.344;6.240;2023-05-10T14:13:25;18.90;99.90
31837;DHT22;18401;49.344;6.240;2023-05-10T14:15:52;17.40;99.90
31837;DHT22;18401;49.344;6.240;2023-05-10T14:18:17;16.80;99.90
31837;DHT22;18401;49.344;6.240;2023-05-10T14:20:43;17.10;99.90
31837;DHT22;18401;49.344;6.240;2023-05-10T14:23:08;18.70;99.90
31837;DHT22;18401;49.344;6.240;2023-05-10T14:25:34;19.30;99.90
31837;DHT22;18401;49.344;6.240;2023-05-10T14:27:59;19.20;99.90
31837;DHT22;18401;49.344;6.240;2023-05-10T14:30:25;20.10;80.50
31837;DHT22;18401;49.344;6.240;2023-05-10T14:32:51;20.20;63.30
31837;DHT22;18401;49.344;6.240;2023-05-10T14:35:19;18.70;63.60
31837;DHT22;18401;49.344;6.240;2023-05-10T14:37:44;17.20;87.60
31837;DHT22;18401;49.344;6.240;2023-05-10T14:40:10;17.20;99.90
31837;DHT22;18401;49.344;6.240;2023-05-10T14:42:36;17.20;99.90
31837;DHT22;18401;49.344;6.240;2023-05-10T14:45:02;16.50;99.90
31837;DHT22;18401;49.344;6.240;2023-05-10T14:47:27;15.70;99.90
31837;DHT22;18401;49.344;6.240;2023-05-10T14:49:53;15.40;99.90
31837;DHT22;18401;49.344;6.240;2023-05-10T14:52:18;15.20;99.90
31837;DHT22;18401;49.344;6.240;2023-05-10T14:54:44;15.20;99.90
31837;DHT22;18401;49.344;6.240;2023-05-10T14:57:09;15.60;99.90
31837;DHT22;18401;49.344;6.240;2023-05-10T14:59:35;15.80;99.90
31837;DHT22;18401;49.344;6.240;2023-05-10T15:02:00;15.90;99.90
31837;DHT22;18401;49.344;6.240;2023-05-10T15:04:26;16.00;99.90
31837;DHT22;18401;49.344;6.240;2023-05-10T15:06:52;16.00;99.90
31837;DHT22;18401;49.344;6.240;2023-05-10T15:09:24;16.00;99.90
31837;DHT22;18401;49.344;6.240;2023-05-10T15:11:49;15.90;99.90
31837;DHT22;18401;49.344;6.240;2023-05-10T15:14:16;16.00;99.90
31837;DHT22;18401;49.344;6.240;2023-05-10T15:16:42;17.20;99.90
31837;DHT22;18401;49.344;6.240;2023-05-10T15:19:07;17.40;99.90
31837;DHT22;18401;49.344;6.240;2023-05-10T15:21:33;17.60;99.90
31837;DHT22;18401;49.344;6.240;2023-05-10T15:24:06;19.00;99.90
31837;DHT22;18401;49.344;6.240;2023-05-10T15:26:32;19.50;99.90
31837;DHT22;18401;49.344;6.240;2023-05-10T15:28:58;19.50;87.50
31837;DHT22;18401;49.344;6.240;2023-05-10T15:31:23;19.20;76.90
31837;DHT22;18401;49.344;6.240;2023-05-10T15:33:49;19.00;62.00
31837;DHT22;18401;49.344;6.240;2023-05-10T15:36:15;19.00;43.20
31837;DHT22;18401;49.344;6.240;2023-05-10T15:38:42;19.00;15.10
31837;DHT22;18401;49.344;6.240;2023-05-10T15:41:07;19.20;18.10
31837;DHT22;18401;49.344;6.240;2023-05-10T15:43:34;18.70;3.20
31837;DHT22;18401;49.344;6.240;2023-05-10T15:46:00;18.80;10.60
31837;DHT22;18401;49.344;6.240;2023-05-10T15:48:26;18.70;29.40
31837;DHT22;18401;49.344;6.240;2023-05-10T15:50:51;17.50;24.30
31837;DHT22;18401;49.344;6.240;2023-05-10T15:53:17;17.00;51.80
31837;DHT22;18401;49.344;6.240;2023-05-10T15:55:43;16.30;52.10
31837;DHT22;18401;49.344;6.240;2023-05-10T15:58:08;16.20;69.90
31837;DHT22;18401;49.344;6.240;2023-05-10T16:00:34;17.20;75.50
31837;DHT22;18401;49.344;6.240;2023-05-10T16:02:59;18.00;92.00
31837;DHT22;18401;49.344;6.240;2023-05-10T16:05:25;18.60;59.70
31837;DHT22;18401;49.344;6.240;2023-05-10T16:07:54;18.70;53.80
31837;DHT22;18401;49.344;6.240;2023-05-10T16:10:19;19.40;64.00
31837;DHT22;18401;49.344;6.240;2023-05-10T16:12:45;18.10;76.20
31837;DHT22;18401;49.344;6.240;2023-05-10T16:15:11;17.10;87.50
31837;DHT22;18401;49.344;6.240;2023-05-10T16:17:36;16.10;93.70
31837;DHT22;18401;49.344;6.240;2023-05-10T16:20:02;15.20;99.90
31837;DHT22;18401;49.344;6.240;2023-05-10T16:22:28;14.70;99.90
31837;DHT22;18401;49.344;6.240;2023-05-10T16:24:54;14.40;99.90
31837;DHT22;18401;49.344;6.240;2023-05-10T16:27:20;14.20;99.90
31837;DHT22;18401;49.344;6.240;2023-05-10T16:29:46;14.00;99.90
31837;DHT22;18401;49.344;6.240;2023-05-10T16:32:12;13.90;99.90
31837;DHT22;18401;49.344;6.240;2023-05-10T16:34:37;13.90;99.90
31837;DHT22;18401;49.344;6.240;2023-05-10T16:37:03;13.90;99.90
31837;DHT22;18401;49.344;6.240;2023-05-10T16:39:28;13.90;99.90
31837;DHT22;18401;49.344;6.240;2023-05-10T16:41:54;14.30;99.90
31837;DHT22;18401;49.344;6.240;2023-05-10T16:44:19;14.80;99.90
31837;DHT22;18401;49.344;6.240;2023-05-10T16:46:45;15.40;99.90
31837;DHT22;18401;49.344;6.240;2023-05-10T16:49:11;16.10;99.90
31837;DHT22;18401;49.344;6.240;2023-05-10T16:51:36;15.80;99.90